createdAt,value
2023-02-14T00:03:25.739Z,81.20
2023-02-14T00:07:49.769Z,28.10
2023-02-14T00:12:13.748Z,31.70
2023-02-14T00:16:37.655Z,11.80
2023-02-14T00:21:05.211Z,9.90
2023-02-14T00:25:29.169Z,9.90
2023-02-14T00:29:53.077Z,9.20
2023-02-14T00:34:18.035Z,9.80
2023-02-14T00:38:35.949Z,10.40
2023-02-14T00:42:59.915Z,10.80
2023-02-14T00:47:23.954Z,9.80
2023-02-14T00:51:47.960Z,8.50
2023-02-14T00:56:02.186Z,10.10
2023-02-14T01:00:25.994Z,9.30
2023-02-14T01:04:49.928Z,8.20
2023-02-14T01:09:14.116Z,8.60
2023-02-14T01:13:38.146Z,9.30
2023-02-14T01:18:01.913Z,10.00
2023-02-14T01:22:25.885Z,8.10
2023-02-14T01:26:49.843Z,7.40
2023-02-14T01:31:14.450Z,7.20
2023-02-14T01:35:38.550Z,8.10
2023-02-14T01:40:02.844Z,7.30
2023-02-14T01:44:29.961Z,18.00
2023-02-14T01:48:53.983Z,12.40
2023-02-14T01:53:30.047Z,13.40
2023-02-14T01:57:56.778Z,27.70
2023-02-14T02:02:20.849Z,28.00
2023-02-14T02:06:55.810Z,11.20
2023-02-14T02:11:19.764Z,11.20
2023-02-14T02:15:43.639Z,16.20
2023-02-14T02:20:29.033Z,12.60
2023-02-14T02:25:05.087Z,13.10
2023-02-14T02:29:32.394Z,8.40
2023-02-14T02:34:04.086Z,12.40
2023-02-14T02:38:33.676Z,7.90
2023-02-14T02:43:00.434Z,9.60
2023-02-14T02:47:27.074Z,6.20
2023-02-14T02:55:51.083Z,9.40
2023-02-14T03:04:36.272Z,7.30
2023-02-14T03:09:00.367Z,9.40
2023-02-14T03:13:34.694Z,29.50
2023-02-14T03:18:05.475Z,21.40
2023-02-14T03:22:38.381Z,10.90
2023-02-14T03:27:21.033Z,16.40
2023-02-14T03:32:03.471Z,9.10
2023-02-14T03:36:28.571Z,7.60
2023-02-14T03:41:04.600Z,8.80
2023-02-14T03:45:28.815Z,10.90
2023-02-14T03:49:45.598Z,9.50
2023-02-14T03:54:09.502Z,8.50
2023-02-14T03:58:39.269Z,5.70
2023-02-14T04:03:12.005Z,3.60
2023-02-14T04:07:36.259Z,22.70
2023-02-14T04:12:00.120Z,8.10
2023-02-14T04:16:24.073Z,16.60
2023-02-14T04:20:48.160Z,12.50
2023-02-14T04:25:12.126Z,7.40
2023-02-14T04:29:36.556Z,6.00
2023-02-14T04:33:53.657Z,35.80
2023-02-14T04:38:10.349Z,14.70
2023-02-14T04:42:34.273Z,2.90
2023-02-14T04:47:26.863Z,10.00
2023-02-14T04:51:56.694Z,5.80
2023-02-14T04:56:21.751Z,2.90
2023-02-14T05:00:46.005Z,3.90
2023-02-14T05:05:10.006Z,3.20
2023-02-14T05:09:33.898Z,2.90
2023-02-14T05:13:57.836Z,2.70
2023-02-14T05:18:15.759Z,4.20
2023-02-14T05:22:40.001Z,4.00
2023-02-14T05:27:04.385Z,5.60
2023-02-14T05:31:28.595Z,6.50
2023-02-14T05:35:52.248Z,5.90
2023-02-14T05:40:36.227Z,3.90
2023-02-14T05:45:00.122Z,3.60
2023-02-14T05:49:24.174Z,8.90
2023-02-14T05:53:48.076Z,6.70
2023-02-14T05:58:13.091Z,6.50
2023-02-14T06:02:37.066Z,10.40
2023-02-14T06:07:01.048Z,10.10
2023-02-14T06:11:26.260Z,12.20
2023-02-14T06:15:50.222Z,8.00
2023-02-14T06:20:14.237Z,10.60
2023-02-14T06:24:38.128Z,19.70
2023-02-14T06:29:09.795Z,44.20
2023-02-14T06:33:33.948Z,21.20
2023-02-14T06:37:57.992Z,20.60
2023-02-14T06:42:21.975Z,10.60
2023-02-14T06:46:46.065Z,34.10
2023-02-14T06:51:10.109Z,65.90
2023-02-14T06:55:33.964Z,50.90
2023-02-14T06:59:57.925Z,51.30
2023-02-14T07:04:21.910Z,99.70
2023-02-14T07:08:45.932Z,58.80
2023-02-14T07:13:10.019Z,99.20
2023-02-14T07:17:33.912Z,36.70
2023-02-14T07:21:51.397Z,63.60
2023-02-14T07:26:15.476Z,42.70
2023-02-14T07:30:39.534Z,51.80
2023-02-14T07:35:03.513Z,72.70
2023-02-14T07:39:27.538Z,57.30
2023-02-14T07:43:57.061Z,25.20
2023-02-14T07:48:21.070Z,18.70
2023-02-14T07:52:45.347Z,40.30
2023-02-14T07:57:09.286Z,24.60
2023-02-14T08:01:33.318Z,27.70
2023-02-14T08:05:57.539Z,47.40
2023-02-14T08:10:21.658Z,34.00
2023-02-14T08:14:47.006Z,27.80
2023-02-14T08:19:10.958Z,26.50
2023-02-14T08:23:34.960Z,19.00
2023-02-14T08:27:59.612Z,19.50
2023-02-14T08:32:24.046Z,11.50
2023-02-14T08:36:48.272Z,11.40
2023-02-14T08:41:13.391Z,11.00
2023-02-14T08:45:37.276Z,13.30
2023-02-14T08:50:02.156Z,16.90
2023-02-14T08:54:26.407Z,11.10
2023-02-14T08:58:44.458Z,11.00
2023-02-14T09:03:08.778Z,10.30
2023-02-14T09:07:25.125Z,11.10
2023-02-14T09:11:49.894Z,10.10
2023-02-14T09:16:10.547Z,11.30
2023-02-14T09:20:34.516Z,10.40
2023-02-14T09:24:58.583Z,13.30
2023-02-14T09:29:42.408Z,18.70
2023-02-14T09:34:08.946Z,24.70
2023-02-14T09:38:52.919Z,28.00
2023-02-14T09:43:17.084Z,24.50
2023-02-14T09:47:41.095Z,22.80
2023-02-14T09:52:17.232Z,21.70
2023-02-14T09:56:51.214Z,19.40
2023-02-14T10:01:26.798Z,15.40
2023-02-14T10:05:53.634Z,15.20
2023-02-14T10:10:22.219Z,16.10
2023-02-14T10:14:51.970Z,11.50
2023-02-14T10:19:21.743Z,15.40
2023-02-14T10:23:54.401Z,19.90
2023-02-14T10:28:25.276Z,15.30
2023-02-14T10:32:53.085Z,18.60
2023-02-14T10:37:25.838Z,16.70
2023-02-14T10:41:58.639Z,11.60
2023-02-14T10:46:38.497Z,18.10
2023-02-14T10:51:05.119Z,10.50
2023-02-14T10:55:32.981Z,11.10
2023-02-14T10:59:59.657Z,10.60
2023-02-14T11:04:30.471Z,12.40
2023-02-14T11:08:57.288Z,14.80
2023-02-14T11:13:34.538Z,10.00
2023-02-14T11:18:09.354Z,13.10
2023-02-14T11:22:33.420Z,12.40
2023-02-14T11:26:58.384Z,22.60
2023-02-14T11:31:35.815Z,31.70
2023-02-14T11:36:02.528Z,12.60
2023-02-14T11:40:30.398Z,15.10
2023-02-14T11:44:57.386Z,28.90
2023-02-14T11:49:37.707Z,34.30
2023-02-14T11:54:02.774Z,17.20
2023-02-14T11:58:38.834Z,30.90
2023-02-14T12:03:08.415Z,16.10
2023-02-14T12:07:32.916Z,44.90
2023-02-14T12:12:05.691Z,31.00
2023-02-14T12:16:30.238Z,16.30
2023-02-14T12:20:58.540Z,15.40
2023-02-14T12:25:38.156Z,18.20
2023-02-14T12:30:11.240Z,28.50
2023-02-14T12:34:35.228Z,40.60
2023-02-14T12:38:59.127Z,32.70
2023-02-14T12:43:30.434Z,21.00
2023-02-14T12:48:06.492Z,23.20
2023-02-14T12:52:37.872Z,19.60
2023-02-14T12:57:10.541Z,16.00
2023-02-14T13:01:40.372Z,11.60
2023-02-14T13:06:18.521Z,14.30
2023-02-14T13:10:52.140Z,10.70
2023-02-14T13:15:25.059Z,11.00
2023-02-14T13:20:04.250Z,15.00
2023-02-14T13:24:26.424Z,15.80
2023-02-14T13:28:53.383Z,15.00
2023-02-14T13:33:17.583Z,15.20
2023-02-14T13:37:41.720Z,11.30
2023-02-14T13:42:05.620Z,15.00
2023-02-14T13:46:32.539Z,13.50
2023-02-14T13:50:59.609Z,34.20
2023-02-14T13:55:35.054Z,12.40
2023-02-14T14:00:04.846Z,11.00
2023-02-14T14:04:35.170Z,16.20
2023-02-14T14:09:01.174Z,15.60
2023-02-14T14:13:26.497Z,18.00
2023-02-14T14:17:59.414Z,15.20
2023-02-14T14:22:41.692Z,15.50
2023-02-14T14:27:08.599Z,15.40
2023-02-14T14:31:32.650Z,18.40
2023-02-14T14:36:07.989Z,15.50
2023-02-14T14:40:33.073Z,14.50
2023-02-14T14:44:57.166Z,15.10
2023-02-14T14:49:33.186Z,20.30
2023-02-14T14:53:50.299Z,12.30
2023-02-14T14:58:14.239Z,8.00
2023-02-14T15:02:39.265Z,7.80
2023-02-14T15:07:15.324Z,12.90
2023-02-14T15:11:46.679Z,7.80
2023-02-14T15:16:04.282Z,6.50
2023-02-14T15:20:29.354Z,5.60
2023-02-14T15:24:56.244Z,4.20
2023-02-14T15:29:38.161Z,4.00
2023-02-14T15:34:09.380Z,3.70
2023-02-14T15:38:33.473Z,4.20
2023-02-14T15:42:59.084Z,4.20
2023-02-14T15:47:26.036Z,3.80
2023-02-14T15:51:50.025Z,4.00
2023-02-14T15:56:13.942Z,4.10
2023-02-14T16:00:38.600Z,3.60
2023-02-14T16:05:05.431Z,3.70
2023-02-14T16:13:37.160Z,3.90
2023-02-14T16:18:01.276Z,3.90
2023-02-14T16:22:37.396Z,35.60
2023-02-14T16:27:01.371Z,26.10
2023-02-14T16:31:18.310Z,8.50
2023-02-14T16:35:42.461Z,3.90
2023-02-14T16:40:06.477Z,3.50
2023-02-14T16:44:30.309Z,3.70
2023-02-14T16:48:54.294Z,3.60
2023-02-14T16:53:18.679Z,3.30
2023-02-14T16:57:42.549Z,3.50
2023-02-14T17:02:06.367Z,3.70
2023-02-14T17:06:30.682Z,4.30
2023-02-14T17:10:54.712Z,4.00
2023-02-14T17:15:18.608Z,4.10
2023-02-14T17:19:42.645Z,4.30
2023-02-14T17:24:15.786Z,4.30
2023-02-14T17:28:39.712Z,4.10
2023-02-14T17:32:56.335Z,3.90
2023-02-14T17:37:20.254Z,4.40
2023-02-14T17:41:50.999Z,4.70
2023-02-14T17:46:14.898Z,4.50
2023-02-14T17:50:38.924Z,5.10
2023-02-14T17:55:03.056Z,4.90
2023-02-14T17:59:27.062Z,4.20
2023-02-14T18:03:50.933Z,5.50
2023-02-14T18:08:15.025Z,6.70
2023-02-14T18:12:38.947Z,4.90
2023-02-14T18:17:25.735Z,4.40
2023-02-14T18:21:52.666Z,4.40
2023-02-14T18:26:17.312Z,22.70
2023-02-14T18:30:41.222Z,19.80
2023-02-14T18:35:05.165Z,10.20
2023-02-14T18:39:29.359Z,8.50
2023-02-14T18:43:53.453Z,6.40
2023-02-14T18:48:17.458Z,4.90
2023-02-14T18:53:01.920Z,5.10
2023-02-14T18:57:25.906Z,7.40
2023-02-14T19:01:52.592Z,4.70
2023-02-14T19:10:20.344Z,4.00
2023-02-14T19:14:47.202Z,9.90
2023-02-14T19:19:14.203Z,4.90
2023-02-14T19:23:41.356Z,5.00
2023-02-14T19:28:05.497Z,5.00
2023-02-14T19:32:29.447Z,10.30
2023-02-14T19:36:59.292Z,32.90
2023-02-14T19:41:25.480Z,9.80
2023-02-14T19:45:49.799Z,7.60
2023-02-14T19:50:13.878Z,6.40
2023-02-14T19:54:37.783Z,4.80
2023-02-14T19:59:01.776Z,4.50
2023-02-14T20:03:26.589Z,4.90
2023-02-14T20:08:10.524Z,5.80
2023-02-14T20:12:54.442Z,4.80
2023-02-14T20:17:18.436Z,4.30
2023-02-14T20:21:45.416Z,5.00
2023-02-14T20:26:09.384Z,4.60
2023-02-14T20:30:33.518Z,5.20
2023-02-14T20:34:58.032Z,6.20
2023-02-14T20:39:22.903Z,5.70
2023-02-14T20:43:47.700Z,6.30
2023-02-14T20:48:11.722Z,6.70
2023-02-14T20:52:35.591Z,6.20
2023-02-14T20:57:00.699Z,6.40
2023-02-14T21:01:47.289Z,5.70
2023-02-14T21:06:19.940Z,4.70
2023-02-14T21:10:33.859Z,5.30
2023-02-14T21:14:57.910Z,5.00
2023-02-14T21:19:22.324Z,5.10
2023-02-14T21:23:46.317Z,6.20
2023-02-14T21:28:10.264Z,5.00
2023-02-14T21:32:34.229Z,5.40
2023-02-14T21:36:58.197Z,5.10
2023-02-14T21:41:22.105Z,5.40
2023-02-14T21:45:44.626Z,6.30
2023-02-14T21:50:07.085Z,6.00
2023-02-14T21:54:31.017Z,7.20
2023-02-14T21:58:55.095Z,5.40
2023-02-14T22:03:18.948Z,8.60
2023-02-14T22:07:43.611Z,7.60
2023-02-14T22:12:10.538Z,5.00
2023-02-14T22:16:20.594Z,5.50
2023-02-14T22:20:44.742Z,4.90
2023-02-14T22:25:08.715Z,11.70
2023-02-14T22:29:32.684Z,5.40
2023-02-14T22:33:56.583Z,9.80
2023-02-14T22:38:20.557Z,5.20
2023-02-14T22:42:44.445Z,4.90
2023-02-14T22:47:08.515Z,4.80
2023-02-14T22:51:32.450Z,4.90
2023-02-14T22:55:56.519Z,5.70
2023-02-14T23:00:20.446Z,5.50
2023-02-14T23:04:47.783Z,5.60
2023-02-14T23:09:12.637Z,6.50
2023-02-14T23:13:35.270Z,5.40
2023-02-14T23:17:57.788Z,5.10
2023-02-14T23:22:22.080Z,5.50
2023-02-14T23:26:46.050Z,5.00
2023-02-14T23:31:10.288Z,5.40
2023-02-14T23:35:34.267Z,5.60
2023-02-14T23:39:56.611Z,5.40
2023-02-14T23:44:20.593Z,5.90
2023-02-14T23:48:45.298Z,5.50
2023-02-14T23:53:09.300Z,9.40
2023-02-14T23:57:33.262Z,9.80
